createdAt,value
2018-06-16T07:38:13.835Z,16.13
2018-06-16T07:40:42.114Z,14.57
2018-06-16T07:43:10.319Z,20.83
2018-06-16T07:45:38.560Z,18.57
2018-06-16T07:48:06.784Z,11.63
2018-06-16T07:50:35.023Z,17.03
2018-06-16T07:53:03.075Z,15.57
2018-06-16T07:55:31.308Z,15.43
2018-06-16T07:57:59.515Z,14.97
2018-06-16T08:00:27.800Z,17.63
2018-06-16T08:02:56.146Z,18.37
2018-06-16T08:05:24.387Z,22.50
2018-06-16T08:07:52.603Z,17.80
2018-06-16T08:10:20.814Z,18.27
2018-06-16T08:12:49.108Z,23.73
2018-06-16T08:15:17.291Z,15.83
2018-06-16T08:17:45.515Z,24.77
2018-06-16T08:20:13.711Z,22.20
2018-06-16T08:22:41.944Z,19.67
2018-06-16T08:25:10.171Z,22.97
2018-06-16T08:27:38.351Z,16.73
2018-06-16T08:30:06.546Z,24.37
2018-06-16T08:32:34.751Z,25.37
2018-06-16T08:35:02.939Z,25.93
2018-06-16T08:37:31.123Z,21.93
2018-06-16T08:39:59.399Z,23.70
2018-06-16T08:42:27.583Z,21.93
2018-06-16T08:44:55.759Z,21.27
2018-06-16T08:47:23.913Z,19.53
2018-06-16T08:49:52.080Z,19.17
2018-06-16T08:52:20.232Z,25.33
2018-06-16T08:54:48.549Z,21.30
2018-06-16T08:57:16.804Z,16.33
2018-06-16T08:59:45.050Z,21.17
2018-06-16T09:02:13.202Z,17.57
2018-06-16T09:04:41.442Z,18.73
2018-06-16T09:07:09.652Z,24.17
2018-06-16T09:09:37.887Z,17.10
2018-06-16T09:12:06.192Z,20.73
2018-06-16T09:14:34.379Z,24.43
2018-06-16T09:17:02.571Z,25.13
2018-06-16T09:19:30.767Z,17.23
2018-06-16T09:21:59.009Z,21.20
2018-06-16T09:24:27.213Z,19.43
2018-06-16T09:26:55.460Z,24.83
2018-06-16T09:29:23.666Z,15.87
2018-06-16T09:31:51.986Z,19.10
2018-06-16T09:34:20.154Z,21.80
2018-06-16T09:36:48.359Z,15.30
2018-06-16T09:39:16.561Z,12.73
2018-06-16T09:41:44.739Z,28.97
2018-06-16T09:44:12.914Z,19.30
2018-06-16T09:46:41.211Z,24.63
2018-06-16T09:49:09.404Z,21.47
2018-06-16T09:51:37.599Z,25.90
2018-06-16T09:54:05.798Z,26.33
2018-06-16T09:56:34.000Z,31.53
2018-06-16T09:59:02.243Z,20.13
2018-06-16T10:01:30.458Z,14.37
2018-06-16T10:03:58.667Z,25.93
2018-06-16T10:06:26.877Z,20.97
2018-06-16T10:08:55.099Z,21.03
2018-06-16T10:11:23.299Z,28.63
2018-06-16T10:13:52.079Z,31.47
2018-06-16T10:16:20.442Z,26.07
2018-06-16T10:18:48.751Z,21.03
2018-06-16T10:21:17.210Z,19.77
2018-06-16T10:23:45.494Z,21.53
2018-06-16T10:26:13.475Z,27.50
2018-06-16T10:28:41.693Z,21.80
2018-06-16T10:31:09.873Z,18.20
2018-06-16T10:33:38.059Z,25.07
2018-06-16T10:36:06.252Z,20.83
2018-06-16T10:38:34.439Z,19.27
2018-06-16T10:41:02.627Z,20.37
2018-06-16T10:43:30.815Z,23.70
2018-06-16T10:45:58.975Z,20.83
2018-06-16T10:48:27.131Z,24.63
2018-06-16T10:50:55.284Z,17.17
2018-06-16T10:53:23.448Z,24.67
2018-06-16T10:55:51.640Z,17.13
2018-06-16T10:58:19.586Z,21.40
2018-06-16T11:00:47.894Z,27.33
2018-06-16T11:03:16.062Z,22.33
2018-06-16T11:05:44.405Z,21.23
2018-06-16T11:08:12.590Z,22.40
2018-06-16T11:10:40.766Z,21.43
2018-06-16T11:13:08.926Z,23.70
2018-06-16T11:15:37.093Z,20.23
2018-06-16T11:18:05.283Z,19.87
2018-06-16T11:20:33.612Z,19.47
2018-06-16T11:23:01.778Z,19.57
2018-06-16T11:25:29.957Z,22.73
2018-06-16T11:27:58.242Z,26.63
2018-06-16T11:30:26.446Z,20.07
2018-06-16T11:32:54.575Z,23.27
2018-06-16T11:35:22.736Z,19.70
2018-06-16T11:37:51.427Z,20.83
2018-06-16T11:40:19.589Z,16.97
2018-06-16T11:42:47.757Z,19.90
2018-06-16T11:45:15.943Z,15.30
2018-06-16T11:47:44.132Z,17.03
2018-06-16T11:50:12.333Z,17.90
2018-06-16T11:52:40.522Z,22.83
2018-06-16T11:55:08.727Z,20.87
2018-06-16T11:57:36.963Z,18.50
2018-06-16T12:00:05.093Z,17.70
2018-06-16T12:02:33.275Z,16.37
2018-06-16T12:05:01.507Z,12.27
2018-06-16T12:07:29.695Z,14.07
2018-06-16T12:09:57.888Z,15.53
2018-06-16T12:12:26.070Z,12.77
2018-06-16T12:14:54.255Z,13.87
2018-06-16T12:17:22.447Z,11.37
2018-06-16T12:19:50.731Z,14.93
2018-06-16T12:22:18.922Z,11.33
2018-06-16T12:24:47.207Z,10.33
2018-06-16T12:27:15.395Z,13.43
2018-06-16T12:29:43.601Z,13.90
2018-06-16T12:32:11.783Z,10.07
2018-06-16T12:34:40.036Z,10.53
2018-06-16T12:37:08.226Z,11.00
2018-06-16T12:39:36.398Z,7.10
2018-06-16T12:42:04.586Z,6.03
2018-06-16T12:44:32.773Z,9.00
2018-06-16T12:47:00.960Z,10.87
2018-06-16T12:49:29.135Z,8.13
2018-06-16T12:51:57.443Z,7.80
2018-06-16T12:54:25.625Z,9.00
2018-06-16T12:56:53.847Z,9.60
2018-06-16T12:59:22.008Z,9.80
2018-06-16T13:01:50.195Z,7.90
2018-06-16T13:04:18.375Z,10.50
2018-06-16T13:06:46.553Z,6.70
2018-06-16T13:09:14.743Z,10.33
2018-06-16T13:11:42.964Z,6.73
2018-06-16T13:14:11.146Z,8.17
2018-06-16T13:16:39.327Z,6.50
2018-06-16T13:19:07.312Z,6.03
2018-06-16T13:21:35.289Z,8.43
2018-06-16T13:24:03.515Z,5.10
2018-06-16T13:26:31.691Z,9.03
2018-06-16T13:28:59.878Z,8.37
2018-06-16T13:31:28.060Z,6.67
2018-06-16T13:33:56.246Z,6.43
2018-06-16T13:36:24.459Z,5.23
2018-06-16T13:38:52.623Z,8.63
2018-06-16T13:41:20.804Z,9.77
2018-06-16T13:43:48.986Z,7.93
2018-06-16T13:46:17.154Z,4.47
2018-06-16T13:48:45.302Z,10.60
2018-06-16T13:51:13.458Z,6.93
2018-06-16T13:53:41.614Z,6.63
2018-06-16T13:56:09.783Z,8.60
2018-06-16T13:58:37.947Z,6.33
2018-06-16T14:01:06.331Z,8.33
2018-06-16T14:03:34.482Z,4.50
2018-06-16T14:06:02.644Z,6.03
2018-06-16T14:08:30.795Z,6.47
2018-06-16T14:10:58.942Z,8.73
2018-06-16T14:13:26.922Z,9.37
2018-06-16T14:15:55.066Z,5.37
2018-06-16T14:18:23.215Z,8.13
2018-06-16T14:20:51.366Z,7.90
2018-06-16T14:23:19.526Z,5.80
2018-06-16T14:25:47.701Z,4.93
2018-06-16T14:28:15.823Z,10.60
2018-06-16T14:30:43.973Z,7.27
2018-06-16T14:33:12.123Z,6.73
2018-06-16T14:35:40.282Z,5.57
2018-06-16T14:38:08.455Z,6.97
2018-06-16T14:40:36.606Z,4.93
2018-06-16T14:43:04.757Z,7.63
2018-06-16T14:45:32.722Z,5.53
2018-06-16T14:48:00.923Z,8.00
2018-06-16T14:50:29.108Z,6.37
2018-06-16T14:52:57.287Z,5.50
2018-06-16T14:55:25.504Z,2.77
2018-06-16T14:57:53.651Z,6.53
2018-06-16T15:00:21.880Z,4.97
2018-06-16T15:02:50.046Z,4.83
2018-06-16T15:05:18.233Z,5.93
2018-06-16T15:07:46.406Z,6.73
2018-06-16T15:10:14.591Z,5.13
2018-06-16T15:12:42.772Z,7.20
2018-06-16T15:15:10.963Z,6.43
2018-06-16T15:17:39.135Z,7.67
2018-06-16T15:20:07.331Z,7.83
2018-06-16T15:22:35.511Z,7.23
2018-06-16T15:25:03.826Z,7.67
2018-06-16T15:27:32.015Z,5.30
2018-06-16T15:30:00.204Z,3.07
2018-06-16T15:32:28.192Z,5.90
2018-06-16T15:34:56.411Z,4.37
2018-06-16T15:37:24.591Z,6.57
2018-06-16T15:39:52.778Z,6.80
2018-06-16T15:42:20.957Z,5.20
2018-06-16T15:44:48.886Z,4.73
2018-06-16T15:47:17.039Z,10.30
2018-06-16T15:49:45.204Z,5.03
2018-06-16T15:52:13.359Z,4.73
2018-06-16T15:54:41.524Z,5.00
2018-06-16T15:57:09.681Z,6.10
2018-06-16T15:59:37.841Z,5.33
2018-06-16T16:02:05.982Z,6.87
2018-06-16T16:04:34.132Z,9.17
2018-06-16T16:07:02.291Z,4.23
2018-06-16T16:09:30.444Z,5.43
2018-06-16T16:11:58.601Z,7.90
2018-06-16T16:14:26.750Z,5.80
2018-06-16T16:16:54.903Z,6.47
2018-06-16T16:19:23.048Z,5.40
2018-06-16T16:21:51.202Z,6.30
2018-06-16T16:24:19.361Z,5.90
2018-06-16T16:26:47.523Z,8.47
2018-06-16T16:29:15.671Z,7.27
2018-06-16T16:31:43.835Z,4.90
2018-06-16T16:34:11.983Z,5.93
2018-06-16T16:36:40.147Z,5.07
2018-06-16T16:39:09.122Z,7.30
2018-06-16T16:41:37.422Z,4.60
2018-06-16T16:44:05.575Z,9.10
2018-06-16T16:46:33.795Z,4.87
2018-06-16T16:49:01.975Z,8.13
2018-06-16T16:51:30.166Z,5.33
2018-06-16T16:53:58.343Z,8.63
2018-06-16T16:56:26.530Z,6.37
2018-06-16T16:58:54.698Z,4.87
2018-06-16T17:01:22.892Z,6.03
2018-06-16T17:03:51.070Z,5.73
2018-06-16T17:06:19.255Z,8.37
2018-06-16T17:08:47.427Z,7.20
2018-06-16T17:11:15.619Z,7.20
2018-06-16T17:13:43.802Z,7.27
2018-06-16T17:16:12.011Z,8.30
2018-06-16T17:18:40.194Z,10.13
2018-06-16T17:21:08.379Z,6.77
2018-06-16T17:23:36.806Z,4.93
2018-06-16T17:26:04.995Z,7.77
2018-06-16T17:28:33.173Z,9.17
2018-06-16T17:31:01.360Z,5.80
2018-06-16T17:33:29.543Z,4.77
2018-06-16T17:35:57.732Z,7.47
2018-06-16T17:38:25.907Z,3.13
2018-06-16T17:40:54.086Z,5.90
2018-06-16T17:43:22.317Z,3.47
2018-06-16T17:45:50.439Z,5.50
2018-06-16T17:48:18.599Z,6.23
2018-06-16T17:50:46.517Z,3.90
2018-06-16T17:53:14.672Z,6.03
2018-06-16T17:55:42.819Z,5.47
2018-06-16T17:58:10.982Z,6.20
2018-06-16T18:00:39.127Z,6.17
2018-06-16T18:03:07.307Z,4.00
2018-06-16T18:05:35.469Z,5.30
2018-06-16T18:08:03.623Z,7.47
2018-06-16T18:10:31.768Z,7.03
2018-06-16T18:13:00.051Z,5.90
2018-06-16T18:15:28.205Z,6.33
2018-06-16T18:17:56.632Z,7.67
2018-06-16T18:20:24.807Z,9.00
2018-06-16T18:22:52.954Z,6.23
2018-06-16T18:25:21.122Z,6.73
2018-06-16T18:27:49.251Z,9.00
2018-06-16T18:30:17.405Z,7.80
2018-06-16T18:32:45.573Z,14.30
2018-06-16T18:35:13.719Z,9.23
2018-06-16T18:37:41.946Z,11.50
2018-06-16T18:40:10.042Z,12.53
2018-06-16T18:42:38.195Z,15.10
2018-06-16T18:45:06.383Z,9.33
2018-06-16T18:47:34.583Z,8.13
2018-06-16T18:50:02.769Z,14.90
2018-06-16T18:52:30.956Z,12.70
2018-06-16T18:54:59.138Z,7.20
2018-06-16T18:57:27.239Z,8.63
2018-06-16T18:59:55.428Z,11.70
2018-06-16T19:02:23.607Z,13.20
2018-06-16T19:04:51.787Z,9.50
2018-06-16T19:07:19.982Z,11.63
2018-06-16T19:09:48.171Z,10.50
2018-06-16T19:12:16.359Z,15.23
2018-06-16T19:14:44.560Z,11.17
2018-06-16T19:17:12.743Z,11.53
2018-06-16T19:19:40.937Z,13.63
2018-06-16T19:22:09.136Z,14.47
2018-06-16T19:24:37.336Z,11.27
2018-06-16T19:27:05.540Z,12.87
2018-06-16T19:29:33.726Z,13.90
2018-06-16T19:32:01.906Z,16.60
2018-06-16T19:34:30.091Z,15.87
2018-06-16T19:36:58.520Z,16.40
2018-06-16T19:39:26.707Z,15.07
2018-06-16T19:41:54.915Z,16.07
2018-06-16T19:44:23.100Z,15.90
2018-06-16T19:46:51.211Z,18.77
2018-06-16T19:49:19.366Z,13.57
2018-06-16T19:51:47.604Z,11.53
2018-06-16T19:54:15.719Z,14.17
2018-06-16T19:56:43.879Z,17.40
2018-06-16T19:59:12.033Z,8.80
2018-06-16T20:01:40.194Z,16.13
2018-06-16T20:04:08.355Z,11.57
2018-06-16T20:06:36.535Z,10.80
2018-06-16T20:09:06.052Z,13.03
2018-06-16T20:11:34.235Z,18.07
2018-06-16T20:14:02.555Z,15.50
2018-06-16T20:16:30.714Z,14.60
2018-06-16T20:18:58.871Z,10.90
2018-06-16T20:21:27.052Z,20.97
2018-06-16T20:23:55.202Z,16.10
2018-06-16T20:26:23.369Z,19.50
2018-06-16T20:28:51.520Z,12.27
2018-06-16T20:31:22.738Z,11.20
2018-06-16T20:33:51.060Z,13.83
2018-06-16T20:36:19.222Z,17.03
2018-06-16T20:38:47.376Z,17.70
2018-06-16T20:41:15.637Z,14.20
2018-06-16T20:43:43.779Z,13.83
2018-06-16T20:46:11.990Z,15.87
2018-06-16T20:48:40.171Z,14.27
2018-06-16T20:51:08.352Z,11.93
2018-06-16T20:53:36.549Z,13.70
2018-06-16T20:56:04.912Z,11.23
2018-06-16T20:58:33.098Z,14.13
2018-06-16T21:01:01.274Z,12.17
2018-06-16T21:03:29.455Z,15.67
2018-06-16T21:05:57.630Z,12.23
2018-06-16T21:08:25.835Z,10.27
2018-06-16T21:10:54.016Z,12.70
2018-06-16T21:13:22.202Z,11.47
2018-06-16T21:15:50.387Z,10.90
2018-06-16T21:18:18.575Z,7.37
2018-06-16T21:20:46.750Z,11.23
2018-06-16T21:23:14.947Z,11.73
2018-06-16T21:25:43.135Z,13.77
2018-06-16T21:28:11.343Z,13.83
2018-06-16T21:30:39.523Z,12.67
2018-06-16T21:33:07.715Z,11.63
2018-06-16T21:35:35.899Z,8.77
2018-06-16T21:38:04.087Z,11.67
2018-06-16T21:40:32.268Z,13.03
2018-06-16T21:43:00.455Z,10.30
2018-06-16T21:45:28.651Z,12.07
2018-06-16T21:47:56.863Z,10.07
2018-06-16T21:50:25.050Z,10.83
2018-06-16T21:52:53.234Z,13.17
2018-06-16T21:55:21.230Z,10.00
2018-06-16T21:57:49.406Z,8.83
2018-06-16T22:00:17.600Z,10.50
2018-06-16T22:02:45.770Z,14.00
2018-06-16T22:05:13.959Z,12.43
2018-06-16T22:07:42.145Z,9.53
2018-06-16T22:10:10.547Z,11.77
2018-06-16T22:12:39.128Z,8.43
2018-06-16T22:15:07.427Z,9.73
2018-06-16T22:17:35.419Z,11.10
2018-06-16T22:20:04.314Z,14.13
2018-06-16T22:22:32.496Z,13.77
2018-06-16T22:25:00.683Z,11.83
2018-06-16T22:27:28.860Z,10.37
2018-06-16T22:29:57.050Z,10.13
2018-06-16T22:32:25.231Z,11.83
2018-06-16T22:34:53.442Z,11.67
2018-06-16T22:37:21.627Z,11.83
2018-06-16T22:39:49.810Z,6.93
2018-06-16T22:42:17.990Z,11.77
2018-06-16T22:44:46.187Z,9.87
2018-06-16T22:47:14.362Z,8.80
2018-06-16T22:49:42.551Z,11.17
2018-06-16T22:52:10.732Z,8.83
2018-06-16T22:54:38.939Z,11.57
2018-06-16T22:57:07.119Z,7.97
2018-06-16T22:59:35.290Z,10.57
2018-06-16T23:02:03.474Z,12.03
2018-06-16T23:04:31.675Z,10.07
2018-06-16T23:06:59.867Z,6.33
2018-06-16T23:09:28.039Z,10.97
2018-06-16T23:11:56.239Z,12.10
2018-06-16T23:14:24.423Z,6.53
2018-06-16T23:16:52.606Z,10.77
2018-06-16T23:19:20.796Z,12.80
2018-06-16T23:21:48.995Z,12.77
2018-06-16T23:24:17.166Z,9.67
2018-06-16T23:26:45.355Z,13.07
2018-06-16T23:29:13.526Z,14.60
2018-06-16T23:31:41.791Z,10.20
2018-06-16T23:34:09.968Z,8.40
2018-06-16T23:36:38.154Z,9.40
2018-06-16T23:39:08.551Z,10.37
2018-06-16T23:41:36.734Z,8.73
2018-06-16T23:44:05.039Z,8.50
2018-06-16T23:46:33.433Z,5.37
2018-06-16T23:49:01.604Z,7.40
2018-06-16T23:51:29.806Z,6.97
2018-06-16T23:53:57.827Z,10.20
2018-06-16T23:56:26.068Z,6.97
2018-06-16T23:58:54.262Z,8.20
